Flight Track Log - Related Links

Times and Time Zones

All times are in EDT time to prevent confusion due to time zone crossing. See the EJA941 flight status page for this flight to view local times or setup timezone preferences in your user account.

Time Position Orientation Groundspeed Altitude Reporting Facility
EDT Latitude Longitude Course Direction KTS MPH feet Rate Location/Type
Wed 10:45:43 PM 42.4628 -114.5350 130° Southeast 231 266 6,900  Level Salt Lake Center
Wed 10:46:44 PM 42.4294 -114.4800 129° Southeast 216 249 11,900 4,049 Climbing Salt Lake Center
Wed 10:47:00 PM 42.0062 -113.7260 132° Southeast  Level FlightAware Approximate
Wed 10:47:46 PM 42.3850 -114.4222 136° Southeast 260 299 15,200  Level Salt Lake Center
Wed 10:48:00 PM 41.9299 -113.6030 132° Southeast  Level FlightAware Approximate
Wed 10:48:48 PM 42.2906 -114.3811 162° South 340 391 16,800  Level Salt Lake Center
Wed 10:49:00 PM 41.8538 -113.4743 124° Southeast  Level FlightAware Approximate
Wed 10:49:49 PM 42.1842 -114.3367 163° South 377 434 18,900  Level Salt Lake Center
Wed 10:50:00 PM 41.7756 -113.3477 130° Southeast  Level FlightAware Approximate
Wed 10:50:51 PM 42.0911 -114.2969 162° South 386 444 20,500  Level Salt Lake Center
Wed 10:51:52 PM 41.9814 -114.2519 163° South 405 466 22,500 2,244 Climbing Salt Lake Center
Wed 10:52:54 PM 41.8478 -114.1956 163° South 418 481 25,100 2,195 Climbing Salt Lake Center
Wed 10:53:55 PM 41.7356 -114.1506 163° South 426 490 27,000 1,854 Climbing Salt Lake Center
Wed 10:54:57 PM 41.6233 -114.1061 164° South 432 497 28,900 1,659 Climbing Salt Lake Center
Wed 10:55:58 PM 41.4928 -114.0492 162° South 451 519 30,400 1,561 Climbing Salt Lake Center
Wed 10:57:00 PM 41.3694 -113.9992 163° South 463 533 32,100 1,805 Climbing Salt Lake Center
Wed 10:58:01 PM 41.2492 -113.9497 163° South 458 527 34,100 1,525 Climbing Salt Lake Center
Wed 10:59:02 PM 41.1308 -113.9022 163° South 452 520 35,200 1,707 Climbing Salt Lake Center
Wed 11:00:04 PM 40.9886 -113.8431 163° South 448 516 37,600 2,293 Climbing Salt Lake Center
Wed 11:01:05 PM 40.8683 -113.7950 163° South 451 519 39,900 1,610 Climbing Salt Lake Center
Wed 11:02:07 PM 40.7481 -113.7458 163° South 453 521 40,900 537 Climbing Salt Lake Center
Wed 11:03:08 PM 40.6228 -113.6969 163° South 466 536 41,000 49 Climbing Salt Lake Center
Wed 11:04:10 PM 40.4906 -113.6439 163° South 491 565 41,000  Level Salt Lake Center
Wed 11:05:11 PM 40.3528 -113.5886 163° South 512 589 41,000  Level Salt Lake Center
Wed 11:06:13 PM 40.2156 -113.5339 163° South 516 594 41,000  Level Salt Lake Center
Wed 11:07:14 PM 40.0775 -113.4803 163° South 518 596 41,000  Level Salt Lake Center
Wed 11:08:15 PM 39.9114 -113.4153 163° South 521 600 41,000  Level Salt Lake Center
Wed 11:09:17 PM 39.7731 -113.3606 163° South 520 598 41,000  Level Salt Lake Center
Wed 11:10:18 PM 39.6231 -113.3025 163° South 525 604 41,000  Level Salt Lake Center
Wed 11:11:19 PM 39.4844 -113.2489 163° South 523 602 41,000  Level Salt Lake Center
Wed 11:12:21 PM 39.3450 -113.1953 163° South 523 602 41,000  Level Salt Lake Center
Wed 11:13:22 PM 39.2058 -113.1419 163° South 523 602 41,000  Level Salt Lake Center
Wed 11:14:24 PM 39.0658 -113.0900 164° South 524 603 41,000  Level Salt Lake Center
Wed 11:15:25 PM 38.9258 -113.0369 164° South 524 603 41,000  Level Salt Lake Center
Wed 11:16:26 PM 38.7858 -112.9850 164° South 524 603 41,000  Level Salt Lake Center
Wed 11:17:28 PM 38.6472 -112.9308 163° South 522 601 41,000  Level Salt Lake Center
Wed 11:18:29 PM 38.5069 -112.8800 164° South 522 601 41,000  Level Salt Lake Center
Wed 11:19:30 PM 38.3408 -112.8175 164° South 519 597 41,000  Level Salt Lake Center
Wed 11:20:32 PM 38.2019 -112.7661 164° South 519 597 41,000  Level Salt Lake Center
Wed 11:21:33 PM 38.0633 -112.7142 164° South 518 596 41,000  Level Salt Lake Center
Wed 11:22:34 PM 37.9244 -112.6625 164° South 517 595 41,000  Level Salt Lake Center
Wed 11:23:35 PM 37.7858 -112.6108 164° South 516 594 41,000  Level Salt Lake Center
Wed 11:24:37 PM 37.6458 -112.5592 164° South 516 594 41,000  Level Salt Lake Center
Wed 11:25:38 PM 37.5047 -112.5075 164° South 518 596 41,000  Level Salt Lake Center
Wed 11:26:39 PM 37.3650 -112.4561 164° South 518 596 41,000  Level Salt Lake Center
Wed 11:27:03 PM 37.3089 -112.4358 164° South 516 594 41,000 -837 Level Los Angeles Center
Wed 11:28:05 PM 37.1700 -112.3853 164° South 518 596 39,800 -1,317 Descending Los Angeles Center
Wed 11:29:06 PM 37.0308 -112.3358 164° South 519 597 38,300 -800 Descending Los Angeles Center
Wed 11:30:20 PM 36.8925 -112.2853 164° South 517 595 38,000 -618 Descending Los Angeles Center
Wed 11:31:22 PM 36.7256 -112.2261 164° South 519 597 36,900 -1,452 Descending Los Angeles Center
Wed 11:32:24 PM 36.5625 -112.1678 164° South 512 589 35,000 -1,561 Descending Los Angeles Center
Wed 11:33:25 PM 36.4244 -112.1200 164° South 514 592 33,700 -1,268 Descending Los Angeles Center
Wed 11:34:27 PM 36.2864 -112.0725 164° South 514 592 32,400 -1,268 Descending Los Angeles Center
Wed 11:35:28 PM 36.1672 -112.0297 164° South 514 592 31,100 -1,317 Descending Los Angeles Center
Wed 11:36:30 PM 36.0306 -111.9825 164° South 509 586 29,700 -1,016 Descending Los Angeles Center
Wed 11:37:32 PM 35.8675 -111.9239 164° South 506 582 29,000 -341 Descending Los Angeles Center
Wed 11:38:33 PM 35.7322 -111.8778 165° South 503 579 29,000  Level Los Angeles Center
Wed 11:39:35 PM 35.5911 -111.8511 171° South 510 587 29,000  Level Los Angeles Center
Wed 11:40:37 PM 35.4497 -111.8592 183° South 506 582 29,000 -488 Level Los Angeles Center
Wed 11:41:38 PM 35.3125 -111.8664 182° South 494 568 28,000 -1,452 Descending Los Angeles Center
Wed 11:42:41 PM 35.1797 -111.8742 183° South 481 554 26,000 -2,177 Descending Albuquerque Center
Wed 11:43:42 PM 35.0211 -111.8817 182° South 474 545 23,500 -2,164 Descending Albuquerque Center
Wed 11:44:43 PM 34.8917 -111.8892 183° South 469 540 21,600 -1,854 Descending Albuquerque Center
Wed 11:45:45 PM 34.7711 -111.8950 182° South 446 513 19,700 -1,854 Descending Albuquerque Center
Wed 11:46:46 PM 34.6489 -111.9014 182° South 432 497 17,800 -1,721 Descending Albuquerque Center
Wed 11:47:47 PM 34.5303 -111.9067 182° South 428 493 16,200 -1,659 Descending Albuquerque Center
Wed 11:48:49 PM 34.4275 -111.9117 182° South 374 430 14,400 -1,512 Descending Albuquerque Center
Wed 11:49:50 PM 34.3389 -111.9161 182° South 327 376 13,100 -1,268 Descending Albuquerque Center
Wed 11:50:52 PM 34.2547 -111.9194 182° South 306 352 11,800 -1,024 Descending Albuquerque Center
Wed 11:51:53 PM 34.1692 -111.9225 182° South 307 353 11,000 -590 Descending Albuquerque Center
Wed 11:52:54 PM 34.0689 -111.9281 183° South 305 351 10,600 -1,171 Descending Albuquerque Center
Wed 11:53:56 PM 33.9900 -111.9328 183° South 295 339 8,600 -1,463 Descending Albuquerque Center
Wed 11:54:57 PM 33.9150 -111.9386 184° South 280 322 7,600 -787 Descending Albuquerque Center
Wed 11:55:58 PM 33.8450 -111.9431 183° South 261 300 7,000 -976 Descending Albuquerque Center
Wed 11:57:00 PM 33.7878 -111.9264 166° South 222 255 5,600 -1,415 Descending Albuquerque Center
Wed 11:58:01 PM 33.7342 -111.8989 157° South 215 247 4,100 -1,230 Descending Albuquerque Center
Wed 11:59:02 PM 33.6836 -111.8769 160° South 177 204 3,100 -984 Descending Albuquerque Center
Thu 12:00:03 AM 33.6486 -111.8808 185° South 154 177 2,100 -780 Descending Albuquerque Center
Thu 12:01:05 AM 33.6286 -111.9047 225° Southwest 143 165 1,500 -581 Descending Albuquerque Center

Login

Don't have an account? Register now (free) for customized features, flight alerts, and more!